Airfield :







YOU CAN JOIN US ON...

 
LOGIN :

Register | Disclaimer

   EN    FR    IT 

 









Legend :    VFR   Marginal VFR   IFR   Intensive IFR   Very Intensive IFR
Visi :
Ceiling :
>= 8 km
>= 3000ft
5 to 8 km
1000 to 3000 ft
1500m to 5 km
500 to 1000 ft
800 to 1500m
200 to 500 ft
< 800m
< 200 ft
Symbols :   Thunderstorms  Fog  Heavy snow  Heavy precipitations  Wind > 20 kt






- Airport Elevation : 6 ft
- IATA code : AEY


BIAR - Akureyri

CURRENT METAR :
  • 102101Z 34028KT 2200 SN VV005 00/M00 Q0960 RMK VIND VADLAHEIDI 01241G58KT

EXPIRED METARs :
  • 102002Z 34027KT 3300 -SN VV005 00/M00 Q0958 RMK VIND VADLAHEIDI 02746G68KT
  • 101900Z 34025G38KT 2800 -SN VV005 00/M00 Q0956 RMK VIND VADLAHEIDI 03956G69KT

TAF TAF BIAR
Valid from the 10 at 21:00 until the 11 at 21:00 UTC


101949Z 1021/1121 36025G40KT 3000 SN SCT008 BKN015 OVC022 TX00/1021Z TNM02/1118Z
TEMPO 1021/1118 0500 BLSN VV002
BECMG 1021/1023 35045G62KT
BECMG 1108/1110 35035G52KT
BECMG 1112/1114 35025G42KT 7000
BECMG 1114/1116 35022KT



MET'MAP, your aeronautical weather chart ! - Copyright ORBIFLY December 2007 - Disclaimer

ORBIFLY MET'MAP TEAM :

Programming & Development : Alexandra Zaïnal
Concept & original design : Baudouin d'Aumeries
Assistance for programming : Marc-Olivier Méhu
Technical & hardware support : Manuel Goepfert

Contact : metmap@orbifly.com




SOURCES & CREDITS :

   NOAA